sensor_id;sensor_type;location;lat;lon;timestamp;pressure;altitude;pressure_sealevel;temperature;humidity
41334;BME280;27078;46.428;6.256;2023-01-28T00:00:51;96522.94;;;1.31;93.87
41334;BME280;27078;46.428;6.256;2023-01-28T00:03:16;96520.31;;;1.31;93.66
41334;BME280;27078;46.428;6.256;2023-01-28T00:05:42;96519.44;;;1.48;90.63
41334;BME280;27078;46.428;6.256;2023-01-28T00:08:07;96514.94;;;1.34;93.65
41334;BME280;27078;46.428;6.256;2023-01-28T00:10:32;96522.59;;;1.37;91.97
41334;BME280;27078;46.428;6.256;2023-01-28T00:12:57;96522.28;;;1.43;94.28
41334;BME280;27078;46.428;6.256;2023-01-28T00:15:23;96515.22;;;1.46;89.51
41334;BME280;27078;46.428;6.256;2023-01-28T00:17:49;96527.16;;;1.50;92.10
41334;BME280;27078;46.428;6.256;2023-01-28T00:20:15;96514.72;;;1.39;88.98
41334;BME280;27078;46.428;6.256;2023-01-28T00:22:46;96509.53;;;1.21;91.55
41334;BME280;27078;46.428;6.256;2023-01-28T00:25:12;96519.00;;;1.22;90.82
41334;BME280;27078;46.428;6.256;2023-01-28T00:27:37;96517.09;;;1.26;91.76
41334;BME280;27078;46.428;6.256;2023-01-28T00:30:02;96524.59;;;1.15;91.99
41334;BME280;27078;46.428;6.256;2023-01-28T00:32:28;96529.03;;;1.13;94.58
41334;BME280;27078;46.428;6.256;2023-01-28T00:34:53;96524.44;;;1.00;96.79
41334;BME280;27078;46.428;6.256;2023-01-28T00:37:19;96529.72;;;1.16;92.62
41334;BME280;27078;46.428;6.256;2023-01-28T00:39:44;96521.53;;;1.24;93.79
41334;BME280;27078;46.428;6.256;2023-01-28T00:42:09;96538.22;;;1.20;91.04
41334;BME280;27078;46.428;6.256;2023-01-28T00:44:34;96535.56;;;1.04;93.44
41334;BME280;27078;46.428;6.256;2023-01-28T00:47:00;96532.25;;;1.18;93.38
41334;BME280;27078;46.428;6.256;2023-01-28T00:49:25;96526.50;;;1.29;91.59
41334;BME280;27078;46.428;6.256;2023-01-28T00:51:51;96514.72;;;1.39;88.40
41334;BME280;27078;46.428;6.256;2023-01-28T00:54:16;96511.47;;;1.51;92.51
41334;BME280;27078;46.428;6.256;2023-01-28T00:56:41;96528.69;;;1.54;92.34
41334;BME280;27078;46.428;6.256;2023-01-28T00:59:07;96516.50;;;1.54;90.12
41334;BME280;27078;46.428;6.256;2023-01-28T01:01:32;96526.09;;;1.54;89.47
41334;BME280;27078;46.428;6.256;2023-01-28T01:03:58;96523.91;;;1.46;92.90
41334;BME280;27078;46.428;6.256;2023-01-28T01:06:34;96519.66;;;1.43;89.20
41334;BME280;27078;46.428;6.256;2023-01-28T01:09:00;96506.78;;;1.58;87.65
41334;BME280;27078;46.428;6.256;2023-01-28T01:11:26;96510.09;;;1.61;87.48
41334;BME280;27078;46.428;6.256;2023-01-28T01:13:57;96517.59;;;1.68;86.84
41334;BME280;27078;46.428;6.256;2023-01-28T01:16:27;96515.31;;;1.77;87.43
41334;BME280;27078;46.428;6.256;2023-01-28T01:18:54;96487.75;;;1.73;87.98
41334;BME280;27078;46.428;6.256;2023-01-28T01:21:22;96517.47;;;1.87;88.91
41334;BME280;27078;46.428;6.256;2023-01-28T01:23:48;96510.56;;;1.86;85.94
41334;BME280;27078;46.428;6.256;2023-01-28T01:26:14;96499.53;;;1.80;87.91
41334;BME280;27078;46.428;6.256;2023-01-28T01:28:40;96507.69;;;1.74;87.08
41334;BME280;27078;46.428;6.256;2023-01-28T01:31:09;96515.50;;;1.74;88.20
41334;BME280;27078;46.428;6.256;2023-01-28T01:33:35;96511.16;;;1.57;86.97
41334;BME280;27078;46.428;6.256;2023-01-28T01:36:00;96499.75;;;1.60;87.29
41334;BME280;27078;46.428;6.256;2023-01-28T01:38:27;96513.53;;;1.62;87.88
41334;BME280;27078;46.428;6.256;2023-01-28T01:40:59;96519.03;;;1.56;87.42
41334;BME280;27078;46.428;6.256;2023-01-28T01:43:25;96483.09;;;1.47;87.62
41334;BME280;27078;46.428;6.256;2023-01-28T01:46:10;96502.22;;;1.46;87.14
41334;BME280;27078;46.428;6.256;2023-01-28T01:48:35;96471.75;;;1.48;86.16
41334;BME280;27078;46.428;6.256;2023-01-28T01:51:10;96499.16;;;1.37;87.03
41334;BME280;27078;46.428;6.256;2023-01-28T01:53:40;96497.63;;;1.33;86.24
41334;BME280;27078;46.428;6.256;2023-01-28T01:56:07;96508.28;;;1.29;86.54
41334;BME280;27078;46.428;6.256;2023-01-28T01:58:37;96495.78;;;1.35;85.69
41334;BME280;27078;46.428;6.256;2023-01-28T02:01:04;96501.09;;;1.34;88.99
41334;BME280;27078;46.428;6.256;2023-01-28T02:03:37;96486.63;;;1.28;88.68
41334;BME280;27078;46.428;6.256;2023-01-28T02:06:07;96495.97;;;1.32;87.48
41334;BME280;27078;46.428;6.256;2023-01-28T02:08:33;96484.19;;;1.25;87.37
41334;BME280;27078;46.428;6.256;2023-01-28T02:11:01;96484.19;;;1.25;87.33
41334;BME280;27078;46.428;6.256;2023-01-28T02:13:35;96504.09;;;1.26;89.79
41334;BME280;27078;46.428;6.256;2023-01-28T02:16:03;96508.97;;;1.32;88.91
41334;BME280;27078;46.428;6.256;2023-01-28T02:18:31;96500.84;;;1.38;90.31
41334;BME280;27078;46.428;6.256;2023-01-28T02:21:20;96502.09;;;1.31;86.74
41334;BME280;27078;46.428;6.256;2023-01-28T02:29:30;96499.50;;;1.31;88.30
41334;BME280;27078;46.428;6.256;2023-01-28T02:32:09;96499.63;;;1.46;87.88
41334;BME280;27078;46.428;6.256;2023-01-28T02:34:59;96500.78;;;1.40;85.73
41334;BME280;27078;46.428;6.256;2023-01-28T02:37:33;96482.47;;;1.41;86.88
41334;BME280;27078;46.428;6.256;2023-01-28T02:40:06;96472.22;;;1.38;84.76
41334;BME280;27078;46.428;6.256;2023-01-28T02:42:36;96478.50;;;1.34;86.42
41334;BME280;27078;46.428;6.256;2023-01-28T02:45:11;96460.00;;;1.23;86.50
41334;BME280;27078;46.428;6.256;2023-01-28T02:47:39;96461.69;;;1.24;85.68
41334;BME280;27078;46.428;6.256;2023-01-28T02:50:25;96459.25;;;1.21;85.40
41334;BME280;27078;46.428;6.256;2023-01-28T02:52:56;96470.88;;;1.14;84.16
41334;BME280;27078;46.428;6.256;2023-01-28T02:56:01;96474.41;;;1.13;86.59
41334;BME280;27078;46.428;6.256;2023-01-28T03:01:58;96463.47;;;1.06;85.83
41334;BME280;27078;46.428;6.256;2023-01-28T03:04:32;96470.22;;;1.10;86.83
41334;BME280;27078;46.428;6.256;2023-01-28T03:07:01;96449.47;;;1.09;85.03
41334;BME280;27078;46.428;6.256;2023-01-28T03:09:29;96477.00;;;1.13;87.32
41334;BME280;27078;46.428;6.256;2023-01-28T03:11:58;96463.31;;;1.09;85.23
41334;BME280;27078;46.428;6.256;2023-01-28T03:14:47;96463.31;;;1.09;86.44
41334;BME280;27078;46.428;6.256;2023-01-28T03:17:40;96461.19;;;1.00;86.55
41334;BME280;27078;46.428;6.256;2023-01-28T03:20:27;96458.16;;;1.08;86.86
41334;BME280;27078;46.428;6.256;2023-01-28T03:23:16;96469.44;;;1.08;84.97
41334;BME280;27078;46.428;6.256;2023-01-28T03:26:02;96464.66;;;1.16;87.52
41334;BME280;27078;46.428;6.256;2023-01-28T03:28:47;96488.50;;;1.09;86.33
41334;BME280;27078;46.428;6.256;2023-01-28T03:31:33;96468.13;;;1.17;84.78
41334;BME280;27078;46.428;6.256;2023-01-28T03:34:20;96463.38;;;1.25;86.23
41334;BME280;27078;46.428;6.256;2023-01-28T03:37:05;96483.25;;;1.26;84.89
41334;BME280;27078;46.428;6.256;2023-01-28T03:39:31;96472.72;;;1.12;83.41
41334;BME280;27078;46.428;6.256;2023-01-28T03:42:04;96476.78;;;1.17;86.48
41334;BME280;27078;46.428;6.256;2023-01-28T03:44:30;96478.44;;;1.18;84.52
41334;BME280;27078;46.428;6.256;2023-01-28T03:47:14;96463.84;;;1.16;86.49
41334;BME280;27078;46.428;6.256;2023-01-28T03:49:44;96463.84;;;1.16;86.52
41334;BME280;27078;46.428;6.256;2023-01-28T03:52:14;96455.88;;;1.19;86.04
41334;BME280;27078;46.428;6.256;2023-01-28T03:54:39;96470.81;;;1.15;86.08
41334;BME280;27078;46.428;6.256;2023-01-28T03:57:05;96469.56;;;1.22;85.51
41334;BME280;27078;46.428;6.256;2023-01-28T03:59:31;96475.25;;;1.13;86.30
41334;BME280;27078;46.428;6.256;2023-01-28T04:01:57;96473.94;;;1.22;85.38
41334;BME280;27078;46.428;6.256;2023-01-28T04:04:23;96490.03;;;1.13;88.93
41334;BME280;27078;46.428;6.256;2023-01-28T04:06:52;96487.72;;;1.07;86.67
41334;BME280;27078;46.428;6.256;2023-01-28T04:09:19;96468.06;;;1.01;85.74
41334;BME280;27078;46.428;6.256;2023-01-28T04:11:45;96473.16;;;1.20;85.94
41334;BME280;27078;46.428;6.256;2023-01-28T04:14:10;96495.22;;;0.95;85.72
41334;BME280;27078;46.428;6.256;2023-01-28T04:16:36;96506.00;;;0.88;88.15
41334;BME280;27078;46.428;6.256;2023-01-28T04:19:01;96505.53;;;0.97;86.92
41334;BME280;27078;46.428;6.256;2023-01-28T04:21:26;96490.34;;;0.89;86.12
41334;BME280;27078;46.428;6.256;2023-01-28T04:23:52;96486.25;;;1.01;86.55
41334;BME280;27078;46.428;6.256;2023-01-28T04:26:17;96487.09;;;1.01;86.73
41334;BME280;27078;46.428;6.256;2023-01-28T04:28:42;96473.47;;;1.14;84.33
41334;BME280;27078;46.428;6.256;2023-01-28T04:31:08;96486.47;;;1.14;85.58
41334;BME280;27078;46.428;6.256;2023-01-28T04:33:33;96497.66;;;1.16;85.73
41334;BME280;27078;46.428;6.256;2023-01-28T04:35:58;96491.22;;;1.06;84.72
41334;BME280;27078;46.428;6.256;2023-01-28T04:38:24;96497.06;;;1.11;85.15
41334;BME280;27078;46.428;6.256;2023-01-28T04:40:52;96481.72;;;1.22;85.56
41334;BME280;27078;46.428;6.256;2023-01-28T04:43:18;96498.13;;;1.24;85.79
41334;BME280;27078;46.428;6.256;2023-01-28T04:45:47;96492.91;;;1.24;86.24
41334;BME280;27078;46.428;6.256;2023-01-28T04:48:14;96497.03;;;1.28;91.17
41334;BME280;27078;46.428;6.256;2023-01-28T04:50:42;96477.38;;;1.22;86.58
41334;BME280;27078;46.428;6.256;2023-01-28T04:53:09;96496.59;;;1.20;85.75
41334;BME280;27078;46.428;6.256;2023-01-28T04:55:34;96493.84;;;1.23;85.73
41334;BME280;27078;46.428;6.256;2023-01-28T04:58:00;96513.72;;;1.24;85.92
41334;BME280;27078;46.428;6.256;2023-01-28T05:00:25;96515.03;;;1.15;85.64
41334;BME280;27078;46.428;6.256;2023-01-28T05:02:50;96519.88;;;1.23;87.71
41334;BME280;27078;46.428;6.256;2023-01-28T05:05:15;96530.72;;;1.14;87.00
41334;BME280;27078;46.428;6.256;2023-01-28T05:07:41;96539.69;;;1.08;87.92
41334;BME280;27078;46.428;6.256;2023-01-28T05:10:07;96528.50;;;1.06;88.50
41334;BME280;27078;46.428;6.256;2023-01-28T05:12:33;96535.56;;;1.04;87.90
41334;BME280;27078;46.428;6.256;2023-01-28T05:14:59;96527.44;;;1.10;87.74
41334;BME280;27078;46.428;6.256;2023-01-28T05:17:26;96523.00;;;1.12;87.83
41334;BME280;27078;46.428;6.256;2023-01-28T05:19:51;96524.16;;;1.07;90.39
41334;BME280;27078;46.428;6.256;2023-01-28T05:22:17;96547.38;;;1.10;89.13
41334;BME280;27078;46.428;6.256;2023-01-28T05:24:42;96544.31;;;1.01;87.13
41334;BME280;27078;46.428;6.256;2023-01-28T05:27:07;96545.56;;;1.12;86.90
41334;BME280;27078;46.428;6.256;2023-01-28T05:29:33;96546.16;;;0.99;89.37
41334;BME280;27078;46.428;6.256;2023-01-28T05:31:58;96541.59;;;1.05;89.71
41334;BME280;27078;46.428;6.256;2023-01-28T05:34:23;96555.66;;;1.00;89.25
41334;BME280;27078;46.428;6.256;2023-01-28T05:36:49;96560.38;;;0.92;91.21
41334;BME280;27078;46.428;6.256;2023-01-28T05:39:14;96561.22;;;0.93;89.76
41334;BME280;27078;46.428;6.256;2023-01-28T05:41:39;96573.63;;;0.88;90.04
41334;BME280;27078;46.428;6.256;2023-01-28T05:44:05;96572.78;;;0.87;90.95
41334;BME280;27078;46.428;6.256;2023-01-28T05:46:30;96561.75;;;0.99;90.20
41334;BME280;27078;46.428;6.256;2023-01-28T05:48:55;96571.19;;;1.02;89.09
41334;BME280;27078;46.428;6.256;2023-01-28T05:51:20;96570.50;;;0.98;90.87
41334;BME280;27078;46.428;6.256;2023-01-28T05:53:46;96565.28;;;0.81;91.08
41334;BME280;27078;46.428;6.256;2023-01-28T05:56:11;96557.31;;;0.84;92.19
41334;BME280;27078;46.428;6.256;2023-01-28T05:58:36;96561.53;;;0.87;93.40
41334;BME280;27078;46.428;6.256;2023-01-28T06:01:02;96558.91;;;0.87;92.07
41334;BME280;27078;46.428;6.256;2023-01-28T06:03:27;96573.84;;;0.83;92.54
41334;BME280;27078;46.428;6.256;2023-01-28T06:05:53;96555.63;;;0.66;94.21
41334;BME280;27078;46.428;6.256;2023-01-28T06:08:18;96556.06;;;0.74;92.55
41334;BME280;27078;46.428;6.256;2023-01-28T06:10:45;96569.16;;;0.72;92.49
41334;BME280;27078;46.428;6.256;2023-01-28T06:13:10;96576.81;;;0.75;94.36
41334;BME280;27078;46.428;6.256;2023-01-28T06:15:35;96582.06;;;0.74;93.61
41334;BME280;27078;46.428;6.256;2023-01-28T06:18:00;96579.19;;;0.80;94.93
41334;BME280;27078;46.428;6.256;2023-01-28T06:20:26;96578.13;;;0.84;93.40
41334;BME280;27078;46.428;6.256;2023-01-28T06:22:51;96561.38;;;0.90;95.16
41334;BME280;27078;46.428;6.256;2023-01-28T06:25:17;96577.69;;;0.93;94.76
41334;BME280;27078;46.428;6.256;2023-01-28T06:27:43;96542.88;;;0.96;93.93
41334;BME280;27078;46.428;6.256;2023-01-28T06:30:09;96576.16;;;0.89;92.30
41334;BME280;27078;46.428;6.256;2023-01-28T06:32:34;96574.75;;;0.82;92.67
41334;BME280;27078;46.428;6.256;2023-01-28T06:35:00;96576.28;;;0.86;92.82
41334;BME280;27078;46.428;6.256;2023-01-28T06:37:25;96575.53;;;0.84;93.12
41334;BME280;27078;46.428;6.256;2023-01-28T06:39:51;96573.09;;;0.81;94.38
41334;BME280;27078;46.428;6.256;2023-01-28T06:42:16;96582.06;;;0.74;92.85
41334;BME280;27078;46.428;6.256;2023-01-28T06:44:41;96578.41;;;0.78;93.54
41334;BME280;27078;46.428;6.256;2023-01-28T06:47:06;96582.25;;;0.88;95.96
41334;BME280;27078;46.428;6.256;2023-01-28T06:49:33;96587.94;;;0.96;96.02
41334;BME280;27078;46.428;6.256;2023-01-28T06:51:58;96582.91;;;0.93;92.53
41334;BME280;27078;46.428;6.256;2023-01-28T06:54:23;96567.19;;;0.95;91.00
41334;BME280;27078;46.428;6.256;2023-01-28T06:56:49;96586.09;;;0.98;93.62
41334;BME280;27078;46.428;6.256;2023-01-28T06:59:14;96576.53;;;0.99;90.66
41334;BME280;27078;46.428;6.256;2023-01-28T07:01:39;96588.72;;;0.98;92.16
41334;BME280;27078;46.428;6.256;2023-01-28T07:04:05;96589.94;;;0.91;91.68
41334;BME280;27078;46.428;6.256;2023-01-28T07:06:31;96595.56;;;0.82;92.00
41334;BME280;27078;46.428;6.256;2023-01-28T07:08:56;96607.50;;;0.86;95.63
41334;BME280;27078;46.428;6.256;2023-01-28T07:11:22;96608.50;;;0.84;92.70
41334;BME280;27078;46.428;6.256;2023-01-28T07:13:47;96600.47;;;0.88;94.21
41334;BME280;27078;46.428;6.256;2023-01-28T07:16:13;96607.69;;;1.00;91.21
41334;BME280;27078;46.428;6.256;2023-01-28T07:18:38;96594.38;;;1.07;94.53
41334;BME280;27078;46.428;6.256;2023-01-28T07:21:03;96588.66;;;1.00;89.56
41334;BME280;27078;46.428;6.256;2023-01-28T07:23:29;96604.59;;;0.92;88.88
41334;BME280;27078;46.428;6.256;2023-01-28T07:25:54;96586.28;;;0.95;92.00
41334;BME280;27078;46.428;6.256;2023-01-28T07:28:19;96594.56;;;0.85;93.45
41334;BME280;27078;46.428;6.256;2023-01-28T07:30:49;96606.66;;;0.86;92.42
41334;BME280;27078;46.428;6.256;2023-01-28T07:33:15;96596.34;;;1.01;92.14
41334;BME280;27078;46.428;6.256;2023-01-28T07:35:41;96596.22;;;1.05;91.34
41334;BME280;27078;46.428;6.256;2023-01-28T07:38:06;96615.28;;;1.22;90.50
41334;BME280;27078;46.428;6.256;2023-01-28T07:40:31;96615.69;;;1.15;89.87
41334;BME280;27078;46.428;6.256;2023-01-28T07:42:57;96601.66;;;1.17;89.82
41334;BME280;27078;46.428;6.256;2023-01-28T07:45:23;96607.94;;;1.13;88.87
41334;BME280;27078;46.428;6.256;2023-01-28T07:47:56;96612.13;;;1.16;89.97
41334;BME280;27078;46.428;6.256;2023-01-28T07:50:23;96568.69;;;1.18;90.04
41334;BME280;27078;46.428;6.256;2023-01-28T07:52:48;96586.06;;;1.17;91.24
41334;BME280;27078;46.428;6.256;2023-01-28T07:55:14;96589.19;;;1.24;88.46
41334;BME280;27078;46.428;6.256;2023-01-28T08:00:14;96609.25;;;1.22;89.62
41334;BME280;27078;46.428;6.256;2023-01-28T08:02:39;96602.50;;;1.18;89.45
41334;BME280;27078;46.428;6.256;2023-01-28T08:05:05;96612.13;;;1.16;88.78
41334;BME280;27078;46.428;6.256;2023-01-28T08:07:30;96632.06;;;1.17;90.43
41334;BME280;27078;46.428;6.256;2023-01-28T08:09:56;96606.88;;;1.17;89.76
41334;BME280;27078;46.428;6.256;2023-01-28T08:12:21;96609.25;;;1.22;89.69
41334;BME280;27078;46.428;6.256;2023-01-28T08:14:46;96589.56;;;1.16;89.35
41334;BME280;27078;46.428;6.256;2023-01-28T08:17:11;96640.19;;;1.28;88.73
41334;BME280;27078;46.428;6.256;2023-01-28T08:19:37;96601.31;;;1.25;88.03
41334;BME280;27078;46.428;6.256;2023-01-28T08:22:02;96637.81;;;1.24;89.26
41334;BME280;27078;46.428;6.256;2023-01-28T08:24:27;96634.13;;;1.28;86.50
41334;BME280;27078;46.428;6.256;2023-01-28T08:26:53;96630.84;;;1.41;84.53
41334;BME280;27078;46.428;6.256;2023-01-28T08:29:18;96634.38;;;1.40;84.63
41334;BME280;27078;46.428;6.256;2023-01-28T08:31:43;96663.63;;;1.46;86.58
41334;BME280;27078;46.428;6.256;2023-01-28T08:34:09;96643.66;;;1.46;86.69
41334;BME280;27078;46.428;6.256;2023-01-28T08:36:34;96671.66;;;1.41;86.50
41334;BME280;27078;46.428;6.256;2023-01-28T08:38:59;96668.81;;;1.46;86.39
41334;BME280;27078;46.428;6.256;2023-01-28T08:41:25;96682.78;;;1.45;85.80
41334;BME280;27078;46.428;6.256;2023-01-28T08:43:50;96678.88;;;1.53;88.20
41334;BME280;27078;46.428;6.256;2023-01-28T08:46:15;96637.59;;;1.63;86.66
41334;BME280;27078;46.428;6.256;2023-01-28T08:48:41;96670.53;;;1.64;85.20
41334;BME280;27078;46.428;6.256;2023-01-28T08:51:06;96680.00;;;1.65;87.42
41334;BME280;27078;46.428;6.256;2023-01-28T08:53:31;96677.28;;;1.68;86.13
41334;BME280;27078;46.428;6.256;2023-01-28T08:55:57;96687.75;;;1.84;86.77
41334;BME280;27078;46.428;6.256;2023-01-28T08:58:22;96694.06;;;1.80;86.71
41334;BME280;27078;46.428;6.256;2023-01-28T09:00:48;96677.09;;;1.71;88.63
41334;BME280;27078;46.428;6.256;2023-01-28T09:03:14;96693.72;;;1.86;87.08
41334;BME280;27078;46.428;6.256;2023-01-28T09:05:40;96682.09;;;1.93;86.06
41334;BME280;27078;46.428;6.256;2023-01-28T09:08:10;96695.47;;;2.03;86.15
41334;BME280;27078;46.428;6.256;2023-01-28T09:10:36;96707.13;;;2.13;86.80
41334;BME280;27078;46.428;6.256;2023-01-28T09:13:07;96707.13;;;2.13;85.77
41334;BME280;27078;46.428;6.256;2023-01-28T09:15:33;96701.09;;;2.13;85.60
41334;BME280;27078;46.428;6.256;2023-01-28T09:17:59;96718.94;;;2.20;84.41
41334;BME280;27078;46.428;6.256;2023-01-28T09:20:25;96729.97;;;2.26;85.31
41334;BME280;27078;46.428;6.256;2023-01-28T09:22:50;96717.22;;;2.37;84.70
41334;BME280;27078;46.428;6.256;2023-01-28T09:25:15;96728.09;;;2.45;82.09
41334;BME280;27078;46.428;6.256;2023-01-28T09:27:41;96744.50;;;2.47;83.68
41334;BME280;27078;46.428;6.256;2023-01-28T09:30:07;96726.09;;;2.50;83.10
41334;BME280;27078;46.428;6.256;2023-01-28T09:32:32;96732.66;;;2.41;80.96
41334;BME280;27078;46.428;6.256;2023-01-28T09:34:58;96747.56;;;2.55;83.26
41334;BME280;27078;46.428;6.256;2023-01-28T09:37:23;96723.19;;;2.56;83.82
41334;BME280;27078;46.428;6.256;2023-01-28T09:39:48;96718.19;;;2.52;81.54
41334;BME280;27078;46.428;6.256;2023-01-28T09:45:41;96720.06;;;2.32;79.00
41334;BME280;27078;46.428;6.256;2023-01-28T09:48:15;96718.47;;;2.30;80.81
41334;BME280;27078;46.428;6.256;2023-01-28T09:50:45;96727.13;;;2.30;80.57
41334;BME280;27078;46.428;6.256;2023-01-28T09:53:22;96721.66;;;2.35;81.37
41334;BME280;27078;46.428;6.256;2023-01-28T09:55:59;96718.59;;;2.44;80.27
41334;BME280;27078;46.428;6.256;2023-01-28T09:58:25;96712.38;;;2.47;79.26
41334;BME280;27078;46.428;6.256;2023-01-28T10:03:58;96734.63;;;2.36;79.67
41334;BME280;27078;46.428;6.256;2023-01-28T10:09:36;96741.63;;;2.36;79.03
41334;BME280;27078;46.428;6.256;2023-01-28T10:15:12;96748.56;;;2.53;78.62
41334;BME280;27078;46.428;6.256;2023-01-28T10:17:49;96744.03;;;2.39;81.15
41334;BME280;27078;46.428;6.256;2023-01-28T10:20:20;96747.09;;;2.47;80.33
41334;BME280;27078;46.428;6.256;2023-01-28T10:25:27;96753.53;;;2.57;76.30
41334;BME280;27078;46.428;6.256;2023-01-28T10:27:53;96749.16;;;2.58;74.67
41334;BME280;27078;46.428;6.256;2023-01-28T10:30:22;96754.47;;;2.56;74.86
41334;BME280;27078;46.428;6.256;2023-01-28T10:35:31;96761.16;;;2.78;77.04
41334;BME280;27078;46.428;6.256;2023-01-28T10:38:01;96744.13;;;2.71;74.46
41334;BME280;27078;46.428;6.256;2023-01-28T10:40:30;96746.75;;;2.71;75.93
41334;BME280;27078;46.428;6.256;2023-01-28T10:42:55;96766.84;;;2.69;75.62
41334;BME280;27078;46.428;6.256;2023-01-28T10:45:25;96772.75;;;2.72;74.50
41334;BME280;27078;46.428;6.256;2023-01-28T10:48:11;96760.09;;;2.82;75.02
41334;BME280;27078;46.428;6.256;2023-01-28T10:50:37;96758.38;;;2.81;75.14
41334;BME280;27078;46.428;6.256;2023-01-28T10:53:13;96752.34;;;2.96;73.27
41334;BME280;27078;46.428;6.256;2023-01-28T10:55:49;96755.13;;;2.77;73.09
41334;BME280;27078;46.428;6.256;2023-01-28T10:58:19;96745.66;;;2.75;72.46
41334;BME280;27078;46.428;6.256;2023-01-28T11:00:53;96757.19;;;2.71;73.27
41334;BME280;27078;46.428;6.256;2023-01-28T11:03:22;96735.13;;;2.60;73.03
41334;BME280;27078;46.428;6.256;2023-01-28T11:05:52;96740.75;;;2.69;72.63
41334;BME280;27078;46.428;6.256;2023-01-28T11:08:19;96746.44;;;2.77;73.62
41334;BME280;27078;46.428;6.256;2023-01-28T11:10:46;96744.56;;;2.79;73.78
41334;BME280;27078;46.428;6.256;2023-01-28T11:15:47;96765.38;;;2.80;75.63
41334;BME280;27078;46.428;6.256;2023-01-28T11:18:24;96764.28;;;2.84;73.21
41334;BME280;27078;46.428;6.256;2023-01-28T11:20:53;96762.25;;;2.74;75.85
41334;BME280;27078;46.428;6.256;2023-01-28T11:23:24;96725.97;;;2.69;74.66
41334;BME280;27078;46.428;6.256;2023-01-28T11:26:03;96758.00;;;2.55;74.52
41334;BME280;27078;46.428;6.256;2023-01-28T11:28:30;96759.03;;;2.69;74.90
41334;BME280;27078;46.428;6.256;2023-01-28T11:30:57;96755.13;;;2.60;75.85
41334;BME280;27078;46.428;6.256;2023-01-28T11:33:37;96755.25;;;2.58;75.43
41334;BME280;27078;46.428;6.256;2023-01-28T11:36:15;96759.47;;;2.77;74.00
41334;BME280;27078;46.428;6.256;2023-01-28T11:41:17;96759.97;;;2.83;74.20
41334;BME280;27078;46.428;6.256;2023-01-28T11:43:43;96765.44;;;2.79;73.40
41334;BME280;27078;46.428;6.256;2023-01-28T11:48:54;96774.16;;;2.62;74.73
41334;BME280;27078;46.428;6.256;2023-01-28T11:56:42;96760.16;;;2.47;75.26
41334;BME280;27078;46.428;6.256;2023-01-28T11:59:27;96748.94;;;2.45;75.19
41334;BME280;27078;46.428;6.256;2023-01-28T12:07:32;96766.91;;;2.34;73.66
41334;BME280;27078;46.428;6.256;2023-01-28T12:12:42;96761.53;;;2.37;79.26
41334;BME280;27078;46.428;6.256;2023-01-28T12:31:34;96762.59;;;2.33;74.76
41334;BME280;27078;46.428;6.256;2023-01-28T12:42:35;96762.13;;;2.59;73.36
41334;BME280;27078;46.428;6.256;2023-01-28T12:47:58;96749.34;;;2.71;72.44
41334;BME280;27078;46.428;6.256;2023-01-28T12:50:30;96753.81;;;2.69;72.83
41334;BME280;27078;46.428;6.256;2023-01-28T12:53:01;96762.28;;;2.56;73.52
41334;BME280;27078;46.428;6.256;2023-01-28T12:55:52;96772.03;;;2.53;74.29
41334;BME280;27078;46.428;6.256;2023-01-28T12:58:38;96766.75;;;2.54;74.26
41334;BME280;27078;46.428;6.256;2023-01-28T13:01:08;96768.13;;;2.44;72.91
41334;BME280;27078;46.428;6.256;2023-01-28T13:03:50;96756.63;;;2.48;74.96
41334;BME280;27078;46.428;6.256;2023-01-28T13:06:23;96751.56;;;2.62;72.80
41334;BME280;27078;46.428;6.256;2023-01-28T13:08:55;96766.97;;;2.50;72.56
41334;BME280;27078;46.428;6.256;2023-01-28T13:11:23;96775.47;;;2.53;74.06
41334;BME280;27078;46.428;6.256;2023-01-28T13:13:48;96773.03;;;2.50;74.80
41334;BME280;27078;46.428;6.256;2023-01-28T13:16:14;96774.41;;;2.57;71.58
41334;BME280;27078;46.428;6.256;2023-01-28T13:21:06;96781.38;;;2.57;72.28
41334;BME280;27078;46.428;6.256;2023-01-28T13:23:38;96753.81;;;2.69;73.87
41334;BME280;27078;46.428;6.256;2023-01-28T13:28:35;96773.06;;;2.66;72.15
41334;BME280;27078;46.428;6.256;2023-01-28T13:31:08;96774.09;;;2.63;71.61
41334;BME280;27078;46.428;6.256;2023-01-28T13:33:39;96794.44;;;2.57;70.85
41334;BME280;27078;46.428;6.256;2023-01-28T13:36:31;96803.53;;;2.65;74.05
41334;BME280;27078;46.428;6.256;2023-01-28T13:39:01;96772.63;;;2.58;71.75
41334;BME280;27078;46.428;6.256;2023-01-28T13:44:40;96809.44;;;2.69;71.61
41334;BME280;27078;46.428;6.256;2023-01-28T13:49:44;96815.03;;;2.79;71.16
41334;BME280;27078;46.428;6.256;2023-01-28T13:54:39;96818.13;;;2.70;72.01
41334;BME280;27078;46.428;6.256;2023-01-28T13:59:47;96816.97;;;2.75;71.69
41334;BME280;27078;46.428;6.256;2023-01-28T14:05:00;96819.78;;;2.71;72.63
41334;BME280;27078;46.428;6.256;2023-01-28T14:07:33;96823.63;;;2.81;68.92
41334;BME280;27078;46.428;6.256;2023-01-28T14:13:03;96811.53;;;2.62;69.96
41334;BME280;27078;46.428;6.256;2023-01-28T14:15:48;96835.00;;;2.62;68.40
41334;BME280;27078;46.428;6.256;2023-01-28T14:18:34;96828.53;;;2.70;69.64
41334;BME280;27078;46.428;6.256;2023-01-28T14:21:03;96826.06;;;2.67;70.83
41334;BME280;27078;46.428;6.256;2023-01-28T14:23:35;96823.63;;;2.63;70.27
41334;BME280;27078;46.428;6.256;2023-01-28T14:31:36;96852.00;;;2.35;72.65
41334;BME280;27078;46.428;6.256;2023-01-28T14:34:17;96827.47;;;2.39;70.77
41334;BME280;27078;46.428;6.256;2023-01-28T14:36:45;96840.50;;;2.21;70.78
41334;BME280;27078;46.428;6.256;2023-01-28T14:39:20;96845.72;;;2.39;74.35
41334;BME280;27078;46.428;6.256;2023-01-28T14:41:48;96838.97;;;2.35;73.47
41334;BME280;27078;46.428;6.256;2023-01-28T14:44:28;96856.03;;;2.24;72.64
41334;BME280;27078;46.428;6.256;2023-01-28T14:52:58;96858.88;;;2.01;75.18
41334;BME280;27078;46.428;6.256;2023-01-28T14:55:49;96885.25;;;1.95;73.38
41334;BME280;27078;46.428;6.256;2023-01-28T14:58:23;96857.81;;;1.69;73.09
41334;BME280;27078;46.428;6.256;2023-01-28T15:00:58;96869.69;;;1.93;73.90
41334;BME280;27078;46.428;6.256;2023-01-28T15:03:28;96849.38;;;2.00;74.06
41334;BME280;27078;46.428;6.256;2023-01-28T15:06:10;96873.41;;;1.88;73.37
41334;BME280;27078;46.428;6.256;2023-01-28T15:08:36;96875.13;;;1.89;74.14
41334;BME280;27078;46.428;6.256;2023-01-28T15:11:05;96871.00;;;2.02;74.80